createdAt,value
2019-03-29T00:00:09.210Z,9.85
2019-03-29T00:01:15.009Z,9.90
2019-03-29T00:02:19.257Z,10.77
2019-03-29T00:03:23.448Z,10.32
2019-03-29T00:04:27.698Z,10.55
2019-03-29T00:05:31.906Z,11.00
2019-03-29T00:06:37.275Z,9.60
2019-03-29T00:07:42.211Z,10.18
2019-03-29T00:08:47.513Z,10.70
2019-03-29T00:09:51.744Z,10.10
2019-03-29T00:10:55.953Z,9.98
2019-03-29T00:12:00.136Z,10.15
2019-03-29T00:13:04.317Z,10.05
2019-03-29T00:14:09.584Z,10.60
2019-03-29T00:15:14.120Z,10.90
2019-03-29T00:16:18.308Z,11.18
2019-03-29T00:17:22.556Z,11.57
2019-03-29T00:18:26.758Z,11.50
2019-03-29T00:19:31.210Z,10.65
2019-03-29T00:20:35.495Z,11.27
2019-03-29T00:21:39.669Z,11.90
2019-03-29T00:22:44.133Z,11.53
2019-03-29T00:23:51.146Z,12.40
2019-03-29T00:24:55.351Z,11.28
2019-03-29T00:25:59.668Z,11.60
2019-03-29T00:27:03.964Z,10.95
2019-03-29T00:28:08.477Z,11.90
2019-03-29T00:29:12.774Z,11.87
2019-03-29T00:30:16.959Z,11.97
2019-03-29T00:31:21.311Z,11.77
2019-03-29T00:32:25.506Z,11.08
2019-03-29T00:33:29.735Z,11.43
2019-03-29T00:34:33.987Z,11.12
2019-03-29T00:35:38.162Z,11.80
2019-03-29T00:36:42.513Z,10.72
2019-03-29T00:37:53.422Z,11.38
2019-03-29T00:38:53.272Z,10.70
2019-03-29T00:39:57.449Z,10.65
2019-03-29T00:41:01.629Z,10.75
2019-03-29T00:42:05.851Z,11.00
2019-03-29T00:43:10.054Z,10.87
2019-03-29T00:44:14.250Z,11.13
2019-03-29T00:45:19.131Z,11.97
2019-03-29T00:46:23.481Z,9.47
2019-03-29T00:47:27.735Z,10.00
2019-03-29T00:48:35.497Z,9.73
2019-03-29T00:49:38.749Z,9.25
2019-03-29T00:50:43.030Z,9.98
2019-03-29T00:51:47.226Z,10.98
2019-03-29T00:52:51.529Z,9.30
2019-03-29T00:53:55.772Z,9.60
2019-03-29T00:54:59.954Z,10.00
2019-03-29T00:56:04.518Z,9.12
2019-03-29T00:57:08.709Z,9.08
2019-03-29T00:58:12.965Z,9.67
2019-03-29T00:59:17.185Z,9.80
2019-03-29T01:00:21.517Z,9.13
2019-03-29T01:01:26.120Z,9.43
2019-03-29T01:02:30.829Z,9.30
2019-03-29T01:03:35.011Z,9.08
2019-03-29T01:04:39.218Z,9.20
2019-03-29T01:05:43.445Z,9.78
2019-03-29T01:06:47.674Z,9.85
2019-03-29T01:08:06.781Z,9.40
2019-03-29T01:08:58.859Z,8.80
2019-03-29T01:10:03.624Z,9.55
2019-03-29T01:11:07.874Z,9.80
2019-03-29T01:12:12.120Z,8.53
2019-03-29T01:13:16.300Z,9.17
2019-03-29T01:14:20.479Z,9.43
2019-03-29T01:15:24.695Z,9.65
2019-03-29T01:16:28.954Z,9.73
2019-03-29T01:17:33.590Z,9.70
2019-03-29T01:18:38.029Z,10.20
2019-03-29T01:19:42.521Z,9.93
2019-03-29T01:20:47.970Z,10.18
2019-03-29T01:21:52.261Z,9.70
2019-03-29T01:22:56.496Z,8.67
2019-03-29T01:24:01.518Z,9.83
2019-03-29T01:25:08.084Z,10.43
2019-03-29T01:26:12.433Z,9.40
2019-03-29T01:27:16.614Z,9.97
2019-03-29T01:28:20.831Z,10.18
2019-03-29T01:29:25.092Z,10.05
2019-03-29T01:30:29.337Z,9.60
2019-03-29T01:31:34.585Z,9.38
2019-03-29T01:32:39.105Z,9.73
2019-03-29T01:33:43.321Z,9.53
2019-03-29T01:34:47.565Z,9.83
2019-03-29T01:35:51.741Z,9.65
2019-03-29T01:36:56.086Z,11.20
2019-03-29T01:38:00.267Z,10.53
2019-03-29T01:39:06.101Z,10.40
2019-03-29T01:40:10.373Z,10.17
2019-03-29T01:41:14.642Z,11.17
2019-03-29T01:42:19.005Z,10.77
2019-03-29T01:43:23.312Z,10.77
2019-03-29T01:44:28.242Z,9.95
2019-03-29T01:45:33.500Z,10.60
2019-03-29T01:46:38.065Z,10.55
2019-03-29T01:47:42.537Z,9.83
2019-03-29T01:48:46.740Z,9.68
2019-03-29T01:49:51.310Z,10.53
2019-03-29T01:50:55.533Z,10.68
2019-03-29T01:51:59.685Z,10.55
2019-03-29T01:53:04.306Z,11.04
2019-03-29T01:54:08.496Z,10.00
2019-03-29T01:55:13.205Z,10.37
2019-03-29T01:56:17.404Z,10.53
2019-03-29T01:57:21.572Z,10.10
2019-03-29T01:58:25.750Z,10.80
2019-03-29T01:59:29.990Z,9.90
2019-03-29T02:00:36.107Z,10.35
2019-03-29T02:01:40.392Z,10.23
2019-03-29T02:02:44.579Z,10.75
2019-03-29T02:03:48.764Z,10.80
2019-03-29T02:04:52.945Z,10.40
2019-03-29T02:05:57.418Z,9.58
2019-03-29T02:07:01.605Z,11.22
2019-03-29T02:08:05.809Z,10.35
2019-03-29T02:09:10.019Z,9.47
2019-03-29T02:10:14.220Z,10.45
2019-03-29T02:11:18.467Z,10.30
2019-03-29T02:12:22.655Z,9.87
2019-03-29T02:13:26.969Z,9.98
2019-03-29T02:14:31.144Z,10.53
2019-03-29T02:15:35.419Z,10.03
2019-03-29T02:16:39.800Z,10.53
2019-03-29T02:17:44.055Z,9.88
2019-03-29T02:18:48.244Z,9.75
2019-03-29T02:19:52.428Z,11.03
2019-03-29T02:20:57.625Z,9.98
2019-03-29T02:22:01.855Z,10.28
2019-03-29T02:23:06.025Z,10.03
2019-03-29T02:24:10.251Z,10.07
2019-03-29T02:25:15.976Z,10.00
2019-03-29T02:26:20.364Z,9.40
2019-03-29T02:27:24.657Z,9.43
2019-03-29T02:28:28.843Z,10.08
2019-03-29T02:29:33.170Z,9.45
2019-03-29T02:30:37.426Z,9.03
2019-03-29T02:31:42.411Z,9.40
2019-03-29T02:32:47.167Z,10.28
2019-03-29T02:33:51.353Z,10.72
2019-03-29T02:34:55.532Z,9.70
2019-03-29T02:36:01.330Z,10.30
2019-03-29T02:37:05.514Z,10.28
2019-03-29T02:38:09.790Z,10.30
2019-03-29T02:39:14.034Z,9.93
2019-03-29T02:40:18.368Z,10.55
2019-03-29T02:41:22.623Z,10.53
2019-03-29T02:42:26.845Z,9.63
2019-03-29T02:43:31.543Z,9.85
2019-03-29T02:44:35.721Z,9.58
2019-03-29T02:45:40.013Z,9.18
2019-03-29T02:46:44.283Z,10.08
2019-03-29T02:47:48.886Z,10.08
2019-03-29T02:48:53.411Z,9.08
2019-03-29T02:49:57.641Z,10.58
2019-03-29T02:51:01.807Z,9.65
2019-03-29T02:52:05.983Z,9.43
2019-03-29T02:53:10.206Z,9.30
2019-03-29T02:54:14.520Z,9.77
2019-03-29T02:55:18.731Z,10.13
2019-03-29T02:56:23.066Z,9.60
2019-03-29T02:57:27.277Z,10.08
2019-03-29T02:58:32.624Z,8.95
2019-03-29T02:59:36.844Z,9.38
2019-03-29T03:00:41.018Z,9.90
2019-03-29T03:01:45.197Z,9.75
2019-03-29T03:02:49.515Z,10.28
2019-03-29T03:03:53.731Z,8.90
2019-03-29T03:04:57.934Z,9.28
2019-03-29T03:06:02.112Z,9.35
2019-03-29T03:07:06.410Z,9.33
2019-03-29T03:08:10.632Z,9.63
2019-03-29T03:09:15.067Z,9.00
2019-03-29T03:10:19.255Z,9.20
2019-03-29T03:11:23.435Z,8.90
2019-03-29T03:12:27.713Z,9.38
2019-03-29T03:13:31.960Z,9.28
2019-03-29T03:14:36.137Z,9.25
2019-03-29T03:15:41.711Z,10.25
2019-03-29T03:16:45.888Z,9.78
2019-03-29T03:17:50.086Z,9.80
2019-03-29T03:18:54.275Z,9.28
2019-03-29T03:19:58.533Z,9.30
2019-03-29T03:21:02.793Z,9.30
2019-03-29T03:22:06.960Z,9.95
2019-03-29T03:23:11.159Z,9.40
2019-03-29T03:24:15.402Z,9.57
2019-03-29T03:25:19.951Z,9.53
2019-03-29T03:26:24.129Z,9.60
2019-03-29T03:27:28.397Z,9.30
2019-03-29T03:28:32.592Z,10.20
2019-03-29T03:29:36.757Z,9.90
2019-03-29T03:30:40.960Z,10.13
2019-03-29T03:31:45.150Z,10.30
2019-03-29T03:32:50.610Z,8.63
2019-03-29T03:33:54.993Z,9.55
2019-03-29T03:34:59.191Z,9.55
2019-03-29T03:36:04.424Z,10.10
2019-03-29T03:37:08.611Z,10.35
2019-03-29T03:38:12.884Z,10.60
2019-03-29T03:39:30.540Z,9.80
2019-03-29T03:40:22.998Z,9.90
2019-03-29T03:41:27.323Z,10.18
2019-03-29T03:42:31.586Z,9.38
2019-03-29T03:43:35.792Z,10.10
2019-03-29T03:44:40.088Z,10.08
2019-03-29T03:45:44.268Z,9.73
2019-03-29T03:46:48.511Z,10.15
2019-03-29T03:47:53.387Z,9.93
2019-03-29T03:48:57.558Z,10.43
2019-03-29T03:50:02.149Z,10.15
2019-03-29T03:51:06.638Z,9.83
2019-03-29T03:52:10.836Z,11.20
2019-03-29T03:53:15.098Z,10.70
2019-03-29T03:54:19.271Z,10.83
2019-03-29T03:55:23.477Z,10.23
2019-03-29T03:56:28.392Z,9.38
2019-03-29T03:57:33.184Z,9.30
2019-03-29T03:58:37.409Z,10.08
2019-03-29T03:59:41.913Z,10.43
2019-03-29T04:00:53.389Z,10.28
2019-03-29T04:01:57.627Z,10.08
2019-03-29T04:03:01.847Z,10.43
2019-03-29T04:04:06.019Z,10.55
2019-03-29T04:05:10.253Z,9.30
2019-03-29T04:06:14.820Z,10.53
2019-03-29T04:07:19.066Z,9.93
2019-03-29T04:08:23.282Z,10.10
2019-03-29T04:09:27.463Z,11.08
2019-03-29T04:10:31.647Z,9.55
2019-03-29T04:11:35.891Z,9.65
2019-03-29T04:12:41.157Z,9.38
2019-03-29T04:13:45.786Z,10.10
2019-03-29T04:14:50.038Z,10.05
2019-03-29T04:15:54.214Z,11.22
2019-03-29T04:16:58.419Z,10.30
2019-03-29T04:18:02.619Z,10.20
2019-03-29T04:19:06.828Z,10.18
2019-03-29T04:20:11.052Z,11.13
2019-03-29T04:21:15.233Z,10.78
2019-03-29T04:22:19.412Z,10.47
2019-03-29T04:23:23.656Z,10.13
2019-03-29T04:24:27.929Z,10.13
2019-03-29T04:25:32.135Z,10.10
2019-03-29T04:26:36.312Z,9.85
2019-03-29T04:27:40.971Z,10.40
2019-03-29T04:28:56.969Z,10.28
2019-03-29T04:29:51.074Z,10.32
2019-03-29T04:30:55.342Z,10.93
2019-03-29T04:31:59.508Z,9.78
2019-03-29T04:33:04.282Z,10.60
2019-03-29T04:34:08.483Z,10.60
2019-03-29T04:35:12.643Z,9.60
2019-03-29T04:36:16.918Z,10.97
2019-03-29T04:37:21.097Z,11.27
2019-03-29T04:38:25.322Z,10.08
2019-03-29T04:39:29.574Z,11.65
2019-03-29T04:40:33.809Z,10.43
2019-03-29T04:41:37.989Z,11.25
2019-03-29T04:42:42.245Z,11.18
2019-03-29T04:43:46.419Z,10.72
2019-03-29T04:44:51.674Z,11.68
2019-03-29T04:45:55.879Z,11.07
2019-03-29T04:47:00.179Z,11.22
2019-03-29T04:48:06.616Z,9.95
2019-03-29T04:49:11.038Z,11.33
2019-03-29T04:50:15.968Z,10.80
2019-03-29T04:51:20.150Z,10.77
2019-03-29T04:52:24.355Z,10.38
2019-03-29T04:53:28.730Z,10.53
2019-03-29T04:54:32.958Z,10.35
2019-03-29T04:55:37.134Z,9.73
2019-03-29T04:56:41.316Z,10.72
2019-03-29T04:57:45.567Z,10.05
2019-03-29T04:58:49.750Z,9.33
2019-03-29T04:59:55.900Z,10.20
2019-03-29T05:01:00.007Z,9.15
2019-03-29T05:02:04.774Z,9.00
2019-03-29T05:03:09.020Z,10.00
2019-03-29T05:04:13.163Z,10.57
2019-03-29T05:05:17.488Z,10.00
2019-03-29T05:06:21.649Z,10.93
2019-03-29T05:07:25.898Z,9.55
2019-03-29T05:08:30.181Z,10.38
2019-03-29T05:09:34.346Z,10.78
2019-03-29T05:10:39.539Z,10.32
2019-03-29T05:11:43.729Z,10.68
2019-03-29T05:12:47.963Z,10.30
2019-03-29T05:13:52.180Z,11.43
2019-03-29T05:14:56.454Z,10.68
2019-03-29T05:16:00.675Z,10.48
2019-03-29T05:17:04.850Z,9.83
2019-03-29T05:18:09.032Z,9.78
2019-03-29T05:19:13.282Z,10.82
2019-03-29T05:20:17.489Z,11.83
2019-03-29T05:21:21.774Z,10.70
2019-03-29T05:22:26.107Z,11.60
2019-03-29T05:23:30.358Z,10.53
2019-03-29T05:24:34.540Z,11.10
2019-03-29T05:25:38.723Z,10.88
2019-03-29T05:26:43.122Z,11.48
2019-03-29T05:27:48.399Z,10.93
2019-03-29T05:28:52.619Z,11.18
2019-03-29T05:29:56.916Z,11.22
2019-03-29T05:31:01.134Z,11.08
2019-03-29T05:32:05.375Z,10.75
2019-03-29T05:33:09.599Z,11.03
2019-03-29T05:34:13.851Z,11.33
2019-03-29T05:35:18.063Z,10.67
2019-03-29T05:36:22.246Z,11.83
2019-03-29T05:37:26.502Z,11.08
2019-03-29T05:38:30.755Z,11.22
2019-03-29T05:39:34.975Z,10.88
2019-03-29T05:40:39.163Z,11.25
2019-03-29T05:41:43.389Z,11.48
2019-03-29T05:42:48.007Z,10.70
2019-03-29T05:43:52.186Z,11.25
2019-03-29T05:44:56.375Z,11.48
2019-03-29T05:46:00.602Z,11.12
2019-03-29T05:47:04.785Z,11.03
2019-03-29T05:48:10.268Z,11.50
2019-03-29T05:49:14.553Z,11.43
2019-03-29T05:50:18.735Z,11.90
2019-03-29T05:51:22.920Z,11.60
2019-03-29T05:52:27.266Z,12.15
2019-03-29T05:53:31.583Z,11.10
2019-03-29T05:54:35.939Z,11.63
2019-03-29T05:55:40.181Z,11.70
2019-03-29T05:56:44.432Z,11.78
2019-03-29T05:57:48.619Z,11.53
2019-03-29T05:58:52.859Z,11.78
2019-03-29T05:59:57.041Z,11.90
2019-03-29T06:01:01.226Z,11.83
2019-03-29T06:02:05.426Z,12.90
2019-03-29T06:03:10.371Z,12.23
2019-03-29T06:04:16.063Z,12.60
2019-03-29T06:05:20.740Z,12.23
2019-03-29T06:06:24.939Z,11.80
2019-03-29T06:07:29.218Z,12.30
2019-03-29T06:08:33.443Z,12.73
2019-03-29T06:09:37.655Z,12.80
2019-03-29T06:10:48.855Z,12.88
2019-03-29T06:11:48.123Z,13.22
2019-03-29T06:12:53.277Z,12.37
2019-03-29T06:13:57.603Z,13.03
2019-03-29T06:15:01.795Z,12.83
2019-03-29T06:16:06.336Z,12.73
2019-03-29T06:17:11.169Z,12.07
2019-03-29T06:18:15.352Z,12.53
2019-03-29T06:19:19.538Z,12.57
2019-03-29T06:20:23.741Z,12.23
2019-03-29T06:21:28.833Z,12.23
2019-03-29T06:22:33.006Z,12.43
2019-03-29T06:23:37.263Z,13.00
2019-03-29T06:24:41.483Z,12.45
2019-03-29T06:25:45.680Z,12.18
2019-03-29T06:26:49.987Z,12.60
2019-03-29T06:27:54.295Z,13.53
2019-03-29T06:28:58.477Z,11.93
2019-03-29T06:30:03.029Z,11.73
2019-03-29T06:31:07.211Z,12.35
2019-03-29T06:32:11.499Z,12.75
2019-03-29T06:33:15.682Z,11.73
2019-03-29T06:34:19.864Z,12.27
2019-03-29T06:35:24.083Z,12.78
2019-03-29T06:36:28.333Z,12.63
2019-03-29T06:37:32.835Z,12.55
2019-03-29T06:38:37.015Z,12.63
2019-03-29T06:39:41.206Z,12.47
2019-03-29T06:40:45.392Z,13.40
2019-03-29T06:41:50.646Z,13.25
2019-03-29T06:42:54.859Z,12.82
2019-03-29T06:43:59.045Z,13.85
2019-03-29T06:45:03.227Z,14.53
2019-03-29T06:46:07.483Z,13.58
2019-03-29T06:47:11.670Z,14.87
2019-03-29T06:48:16.878Z,13.90
2019-03-29T06:49:21.064Z,13.03
2019-03-29T06:50:25.240Z,13.62
2019-03-29T06:51:29.522Z,13.45
2019-03-29T06:52:33.683Z,14.85
2019-03-29T06:53:38.993Z,13.78
2019-03-29T06:54:43.175Z,13.48
2019-03-29T06:55:47.512Z,14.45
2019-03-29T06:56:51.696Z,14.23
2019-03-29T06:57:55.935Z,13.90
2019-03-29T06:59:00.328Z,12.50
2019-03-29T07:00:05.224Z,14.47
2019-03-29T07:01:09.374Z,14.67
2019-03-29T07:02:13.619Z,14.43
2019-03-29T07:03:17.802Z,13.57
2019-03-29T07:04:22.018Z,12.70
2019-03-29T07:05:26.210Z,10.93
2019-03-29T07:06:30.720Z,12.25
2019-03-29T07:07:35.061Z,11.97
2019-03-29T07:08:39.306Z,11.50
2019-03-29T07:09:43.593Z,12.13
2019-03-29T07:10:47.775Z,11.08
2019-03-29T07:11:51.959Z,11.03
2019-03-29T07:12:56.703Z,12.15
2019-03-29T07:14:00.846Z,12.07
2019-03-29T07:15:06.397Z,12.00
2019-03-29T07:16:11.546Z,12.47
2019-03-29T07:17:15.731Z,12.80
2019-03-29T07:18:19.977Z,11.70
2019-03-29T07:19:24.256Z,11.83
2019-03-29T07:20:28.522Z,11.60
2019-03-29T07:21:32.777Z,11.20
2019-03-29T07:22:36.961Z,11.93
2019-03-29T07:23:41.158Z,12.78
2019-03-29T07:24:45.338Z,11.15
2019-03-29T07:25:50.179Z,11.90
2019-03-29T07:26:54.454Z,12.03
2019-03-29T07:27:58.634Z,12.70
2019-03-29T07:29:02.820Z,12.60
2019-03-29T07:30:07.138Z,11.78
2019-03-29T07:31:11.545Z,11.60
2019-03-29T07:32:15.928Z,12.33
2019-03-29T07:33:20.178Z,11.45
2019-03-29T07:34:24.359Z,12.47
2019-03-29T07:35:28.546Z,11.88
2019-03-29T07:36:32.802Z,12.53
2019-03-29T07:37:37.015Z,12.00
2019-03-29T07:38:41.223Z,11.85
2019-03-29T07:39:45.403Z,11.22
2019-03-29T07:40:49.582Z,11.30
2019-03-29T07:41:53.851Z,11.57
2019-03-29T07:42:58.146Z,11.68
2019-03-29T07:44:02.527Z,10.75
2019-03-29T07:45:10.023Z,11.35
2019-03-29T07:46:13.021Z,11.03
2019-03-29T07:47:17.279Z,10.23
2019-03-29T07:48:21.514Z,11.60
2019-03-29T07:49:25.773Z,11.48
2019-03-29T07:50:29.942Z,11.15
2019-03-29T07:51:34.123Z,11.30
2019-03-29T07:52:38.313Z,11.40
2019-03-29T07:53:44.955Z,12.35
2019-03-29T07:54:48.410Z,10.65
2019-03-29T07:55:52.590Z,10.95
2019-03-29T07:56:56.773Z,11.15
2019-03-29T07:58:01.023Z,11.63
2019-03-29T07:59:05.242Z,10.95
2019-03-29T08:00:09.490Z,11.53
2019-03-29T08:01:13.742Z,10.77
2019-03-29T08:02:17.923Z,11.53
2019-03-29T08:03:23.499Z,11.00
2019-03-29T08:04:29.046Z,10.82
2019-03-29T08:05:35.293Z,11.50
2019-03-29T08:06:39.264Z,11.45
2019-03-29T08:07:43.586Z,10.53
2019-03-29T08:08:47.838Z,11.43
2019-03-29T08:09:52.066Z,10.35
2019-03-29T08:10:57.215Z,10.78
2019-03-29T08:12:01.395Z,10.40
2019-03-29T08:13:06.542Z,10.50
2019-03-29T08:14:10.749Z,10.83
2019-03-29T08:15:14.967Z,11.10
2019-03-29T08:16:19.297Z,10.23
2019-03-29T08:17:23.499Z,9.98
2019-03-29T08:18:27.660Z,9.73
2019-03-29T08:19:31.842Z,10.63
2019-03-29T08:20:41.677Z,10.48
2019-03-29T08:21:41.998Z,10.88
2019-03-29T08:22:47.220Z,9.90
2019-03-29T08:23:51.403Z,10.43
2019-03-29T08:24:58.983Z,9.85
2019-03-29T08:26:01.463Z,9.73
2019-03-29T08:27:05.714Z,10.23
2019-03-29T08:28:09.900Z,9.33
2019-03-29T08:29:14.067Z,9.57
2019-03-29T08:30:18.242Z,9.37
2019-03-29T08:31:22.472Z,9.03
2019-03-29T08:32:26.641Z,9.83
2019-03-29T08:33:30.840Z,8.83
2019-03-29T08:34:35.977Z,9.68
2019-03-29T08:35:40.271Z,9.50
2019-03-29T08:36:44.444Z,9.40
2019-03-29T08:37:48.700Z,10.08
2019-03-29T08:38:52.989Z,9.83
2019-03-29T08:39:57.205Z,9.13
2019-03-29T08:41:01.379Z,9.58
2019-03-29T08:42:05.553Z,9.68
2019-03-29T08:43:09.738Z,10.07
2019-03-29T08:44:14.062Z,9.70
2019-03-29T08:45:18.240Z,9.63
2019-03-29T08:46:22.424Z,10.18
2019-03-29T08:47:26.765Z,10.32
2019-03-29T08:48:30.936Z,10.00
2019-03-29T08:49:36.273Z,9.88
2019-03-29T08:50:40.494Z,9.23
2019-03-29T08:51:44.709Z,8.70
2019-03-29T08:52:49.138Z,9.15
2019-03-29T08:53:53.313Z,9.45
2019-03-29T08:54:57.490Z,9.40
2019-03-29T08:56:01.669Z,9.20
2019-03-29T08:57:05.869Z,9.50
2019-03-29T08:58:10.071Z,10.13
2019-03-29T08:59:17.327Z,9.97
2019-03-29T09:00:30.088Z,9.73
2019-03-29T09:01:34.338Z,9.38
2019-03-29T09:02:38.553Z,7.70
2019-03-29T09:03:43.006Z,9.45
2019-03-29T09:04:47.221Z,8.85
2019-03-29T09:05:51.487Z,9.15
2019-03-29T09:06:55.661Z,9.85
2019-03-29T09:07:59.878Z,9.10
2019-03-29T09:09:05.792Z,9.30
2019-03-29T09:10:13.229Z,9.53
2019-03-29T09:11:17.502Z,9.17
2019-03-29T09:12:21.669Z,8.70
2019-03-29T09:13:25.933Z,8.95
2019-03-29T09:14:31.550Z,8.80
2019-03-29T09:15:37.038Z,9.33
2019-03-29T09:16:41.298Z,8.90
2019-03-29T09:17:45.473Z,9.38
2019-03-29T09:18:49.683Z,8.68
2019-03-29T09:19:53.956Z,8.70
2019-03-29T09:20:58.201Z,9.13
2019-03-29T09:22:02.466Z,8.83
2019-03-29T09:23:10.155Z,8.43
2019-03-29T09:24:21.689Z,9.10
2019-03-29T09:25:21.035Z,9.00
2019-03-29T09:26:24.500Z,9.50
2019-03-29T09:27:31.821Z,8.63
2019-03-29T09:28:34.599Z,9.55
2019-03-29T09:29:38.862Z,8.73
2019-03-29T09:30:43.037Z,8.70
2019-03-29T09:31:47.249Z,9.03
2019-03-29T09:32:51.867Z,8.78
2019-03-29T09:33:58.532Z,9.13
2019-03-29T09:35:02.150Z,8.70
2019-03-29T09:36:06.294Z,8.55
2019-03-29T09:37:11.514Z,9.40
2019-03-29T09:38:15.797Z,9.03
2019-03-29T09:39:20.011Z,9.03
2019-03-29T09:40:24.203Z,9.05
2019-03-29T09:41:28.451Z,9.88
2019-03-29T09:42:32.650Z,9.00
2019-03-29T09:43:36.828Z,9.73
2019-03-29T09:44:41.053Z,8.83
2019-03-29T09:45:45.225Z,8.75
2019-03-29T09:46:49.478Z,8.88
2019-03-29T09:47:55.860Z,8.53
2019-03-29T09:48:59.645Z,8.20
2019-03-29T09:50:06.170Z,8.48
2019-03-29T09:51:10.345Z,8.50
2019-03-29T09:52:14.566Z,8.60
2019-03-29T09:53:18.815Z,8.47
2019-03-29T09:54:22.993Z,7.70
2019-03-29T09:55:27.169Z,8.05
2019-03-29T09:56:38.849Z,7.28
2019-03-29T09:57:38.357Z,8.10
2019-03-29T09:58:45.089Z,7.35
2019-03-29T09:59:48.726Z,7.28
2019-03-29T10:00:53.025Z,7.22
2019-03-29T10:01:57.202Z,7.78
2019-03-29T10:03:01.421Z,7.83
2019-03-29T10:04:05.602Z,7.55
2019-03-29T10:05:10.868Z,8.10
2019-03-29T10:06:16.084Z,7.35
2019-03-29T10:07:20.225Z,7.80
2019-03-29T10:08:24.449Z,8.20
2019-03-29T10:09:28.697Z,7.72
2019-03-29T10:10:34.652Z,7.42
2019-03-29T10:11:38.858Z,6.83
2019-03-29T10:12:44.071Z,7.33
2019-03-29T10:13:48.545Z,7.30
2019-03-29T10:14:52.717Z,7.10
2019-03-29T10:15:56.889Z,7.12
2019-03-29T10:17:01.075Z,7.00
2019-03-29T10:18:05.321Z,7.17
2019-03-29T10:19:09.537Z,6.40
2019-03-29T10:20:13.708Z,6.50
2019-03-29T10:21:17.896Z,7.00
2019-03-29T10:22:22.064Z,7.37
2019-03-29T10:23:26.276Z,7.17
2019-03-29T10:24:30.670Z,7.17
2019-03-29T10:25:34.955Z,7.42
2019-03-29T10:26:39.135Z,6.78
2019-03-29T10:27:43.370Z,7.47
2019-03-29T10:28:47.705Z,6.43
2019-03-29T10:29:51.912Z,7.00
2019-03-29T10:30:56.261Z,7.53
2019-03-29T10:32:00.441Z,7.25
2019-03-29T10:33:04.607Z,7.30
2019-03-29T10:34:08.824Z,7.03
2019-03-29T10:35:13.039Z,7.17
2019-03-29T10:36:17.340Z,6.90
2019-03-29T10:37:21.511Z,6.63
2019-03-29T10:38:25.736Z,7.12
2019-03-29T10:39:29.905Z,7.22
2019-03-29T10:40:34.344Z,6.30
2019-03-29T10:41:38.606Z,6.10
2019-03-29T10:42:56.761Z,6.55
2019-03-29T10:43:48.717Z,5.92
2019-03-29T10:44:52.883Z,5.77
2019-03-29T10:45:57.236Z,5.78
2019-03-29T10:47:01.404Z,6.20
2019-03-29T10:48:05.752Z,6.20
2019-03-29T10:49:09.941Z,6.07
2019-03-29T10:50:14.112Z,6.47
2019-03-29T10:51:18.321Z,6.37
2019-03-29T10:52:22.493Z,5.80
2019-03-29T10:53:28.710Z,5.47
2019-03-29T10:54:32.611Z,5.40
2019-03-29T10:55:37.677Z,6.25
2019-03-29T10:56:42.023Z,5.90
2019-03-29T10:57:46.320Z,5.92
2019-03-29T10:58:51.565Z,6.65
2019-03-29T10:59:55.805Z,6.20
2019-03-29T11:00:59.981Z,6.12
2019-03-29T11:02:04.257Z,4.15
2019-03-29T11:03:08.780Z,4.00
2019-03-29T11:04:12.940Z,3.83
2019-03-29T11:05:17.164Z,3.73
2019-03-29T11:06:21.297Z,4.00
2019-03-29T11:07:25.547Z,4.47
2019-03-29T11:08:29.698Z,3.70
2019-03-29T11:09:36.901Z,3.90
2019-03-29T11:10:41.062Z,4.95
2019-03-29T11:11:45.339Z,4.20
2019-03-29T11:12:49.517Z,5.03
2019-03-29T11:13:56.505Z,4.05
2019-03-29T11:14:59.702Z,3.73
2019-03-29T11:16:03.973Z,3.42
2019-03-29T11:17:08.180Z,4.05
2019-03-29T11:18:12.315Z,4.93
2019-03-29T11:19:16.516Z,4.17
2019-03-29T11:20:21.728Z,4.37
2019-03-29T11:21:26.280Z,4.17
2019-03-29T11:22:30.445Z,4.15
2019-03-29T11:23:34.687Z,3.70
2019-03-29T11:24:38.959Z,3.60
2019-03-29T11:25:43.128Z,3.33
2019-03-29T11:26:47.396Z,3.30
2019-03-29T11:27:51.568Z,3.30
2019-03-29T11:28:55.767Z,3.50
2019-03-29T11:29:59.937Z,3.20
2019-03-29T11:31:04.591Z,2.86
2019-03-29T11:32:08.792Z,3.47
2019-03-29T11:33:12.997Z,3.80
2019-03-29T11:34:17.203Z,3.30
2019-03-29T11:35:21.339Z,3.27
2019-03-29T11:36:25.545Z,3.50
2019-03-29T11:37:30.168Z,3.52
2019-03-29T11:38:34.384Z,3.10
2019-03-29T11:39:38.572Z,2.90
2019-03-29T11:40:42.741Z,2.98
2019-03-29T11:41:46.914Z,3.10
2019-03-29T11:42:51.116Z,2.50
2019-03-29T11:43:55.381Z,3.30
2019-03-29T11:44:59.615Z,2.60
2019-03-29T11:46:04.786Z,2.48
2019-03-29T11:47:09.001Z,2.80
2019-03-29T11:48:13.750Z,2.93
2019-03-29T11:49:17.934Z,2.67
2019-03-29T11:50:22.176Z,2.90
2019-03-29T11:51:26.447Z,3.15
2019-03-29T11:52:33.764Z,2.67
2019-03-29T11:53:36.520Z,2.55
2019-03-29T11:54:40.741Z,3.05
2019-03-29T11:55:44.911Z,2.80
2019-03-29T11:56:49.149Z,3.20
2019-03-29T11:57:55.825Z,2.77
2019-03-29T11:58:59.720Z,3.27
2019-03-29T12:00:07.392Z,3.14
2019-03-29T12:01:11.616Z,2.70
2019-03-29T12:02:30.194Z,2.73
2019-03-29T12:03:21.647Z,3.47
2019-03-29T12:04:25.863Z,3.35
2019-03-29T12:05:30.028Z,3.10
2019-03-29T12:06:34.268Z,3.00
2019-03-29T12:07:38.517Z,2.65
2019-03-29T12:08:42.701Z,3.15
2019-03-29T12:09:46.928Z,2.77
2019-03-29T12:10:51.109Z,2.90
2019-03-29T12:11:55.281Z,3.17
2019-03-29T12:12:59.460Z,3.05
2019-03-29T12:14:05.178Z,2.86
2019-03-29T12:15:09.475Z,2.40
2019-03-29T12:16:13.812Z,2.50
2019-03-29T12:17:18.063Z,2.98
2019-03-29T12:18:22.246Z,2.80
2019-03-29T12:19:26.445Z,2.92
2019-03-29T12:20:30.647Z,2.90
2019-03-29T12:21:34.818Z,2.57
2019-03-29T12:22:39.075Z,2.72
2019-03-29T12:23:43.252Z,2.65
2019-03-29T12:24:47.544Z,2.87
2019-03-29T12:25:51.714Z,2.95
2019-03-29T12:26:55.881Z,3.17
2019-03-29T12:28:00.054Z,2.60
2019-03-29T12:29:04.360Z,2.45
2019-03-29T12:30:08.795Z,3.00
2019-03-29T12:31:13.019Z,2.57
2019-03-29T12:32:17.251Z,2.30
2019-03-29T12:33:21.444Z,2.77
2019-03-29T12:34:25.721Z,3.10
2019-03-29T12:35:29.893Z,2.70
2019-03-29T12:36:34.063Z,2.62
2019-03-29T12:37:38.265Z,2.92
2019-03-29T12:38:42.464Z,2.85
2019-03-29T12:39:46.689Z,2.60
2019-03-29T12:40:51.824Z,2.27
2019-03-29T12:41:56.079Z,2.47
2019-03-29T12:43:00.280Z,2.20
2019-03-29T12:44:04.883Z,2.60
2019-03-29T12:45:09.141Z,2.17
2019-03-29T12:46:13.389Z,2.53
2019-03-29T12:47:17.625Z,3.20
2019-03-29T12:48:22.180Z,3.87
2019-03-29T12:49:27.919Z,3.50
2019-03-29T12:50:32.102Z,3.20
2019-03-29T12:51:36.266Z,3.17
2019-03-29T12:52:40.516Z,3.25
2019-03-29T12:53:44.721Z,3.47
2019-03-29T12:54:48.892Z,3.00
2019-03-29T12:55:53.070Z,2.80
2019-03-29T12:56:57.236Z,2.62
2019-03-29T12:58:01.439Z,3.25
2019-03-29T12:59:05.602Z,3.22
2019-03-29T13:00:09.796Z,2.50
2019-03-29T13:01:13.960Z,3.17
2019-03-29T13:02:18.153Z,2.53
2019-03-29T13:03:22.337Z,3.17
2019-03-29T13:04:26.509Z,2.60
2019-03-29T13:05:30.692Z,2.95
2019-03-29T13:06:34.877Z,3.02
2019-03-29T13:07:39.116Z,2.83
2019-03-29T13:08:43.318Z,2.47
2019-03-29T13:09:47.572Z,2.87
2019-03-29T13:10:52.012Z,3.10
2019-03-29T13:11:56.205Z,2.67
2019-03-29T13:13:00.998Z,2.62
2019-03-29T13:14:10.662Z,2.42
2019-03-29T13:15:12.541Z,2.40
2019-03-29T13:16:16.713Z,2.80
2019-03-29T13:17:20.956Z,2.43
2019-03-29T13:18:25.130Z,2.65
2019-03-29T13:19:29.724Z,2.40
2019-03-29T13:20:33.935Z,2.30
2019-03-29T13:21:38.933Z,2.08
2019-03-29T13:22:44.352Z,2.90
2019-03-29T13:23:49.671Z,3.40
2019-03-29T13:24:53.902Z,2.60
2019-03-29T13:25:58.104Z,2.43
2019-03-29T13:27:02.271Z,2.67
2019-03-29T13:28:07.874Z,2.65
2019-03-29T13:29:12.114Z,2.90
2019-03-29T13:30:17.303Z,3.07
2019-03-29T13:31:21.541Z,3.03
2019-03-29T13:32:25.734Z,2.72
2019-03-29T13:33:29.952Z,2.77
2019-03-29T13:34:34.134Z,2.37
2019-03-29T13:35:38.350Z,2.40
2019-03-29T13:36:42.526Z,2.54
2019-03-29T13:37:46.749Z,2.40
2019-03-29T13:38:50.916Z,2.55
2019-03-29T13:39:55.083Z,2.50
2019-03-29T13:40:59.293Z,2.22
2019-03-29T13:42:04.217Z,2.40
2019-03-29T13:43:08.403Z,2.45
2019-03-29T13:44:23.157Z,2.30
2019-03-29T13:45:18.433Z,2.50
2019-03-29T13:46:22.801Z,2.93
2019-03-29T13:47:28.613Z,2.55
2019-03-29T13:48:32.863Z,2.20
2019-03-29T13:49:37.044Z,2.47
2019-03-29T13:50:41.288Z,2.00
2019-03-29T13:51:45.483Z,2.47
2019-03-29T13:52:49.755Z,2.17
2019-03-29T13:53:53.981Z,2.05
2019-03-29T13:54:58.166Z,2.40
2019-03-29T13:56:02.389Z,2.27
2019-03-29T13:57:06.598Z,2.60
2019-03-29T13:58:10.839Z,2.35
2019-03-29T13:59:15.013Z,2.33
2019-03-29T14:00:19.187Z,2.00
2019-03-29T14:01:23.362Z,2.12
2019-03-29T14:02:27.624Z,1.98
2019-03-29T14:03:31.791Z,2.00
2019-03-29T14:04:35.968Z,2.27